sensor_id;sensor_type;location;lat;lon;timestamp;temperature;humidity
21306;DHT22;10812;51.838;5.838;2022-08-01T00:00:52;19.50;99.90
21306;DHT22;10812;51.838;5.838;2022-08-01T00:03:20;19.40;99.90
21306;DHT22;10812;51.838;5.838;2022-08-01T00:05:48;19.40;99.90
21306;DHT22;10812;51.838;5.838;2022-08-01T00:08:16;19.40;99.90
21306;DHT22;10812;51.838;5.838;2022-08-01T00:10:44;19.30;99.90
21306;DHT22;10812;51.838;5.838;2022-08-01T00:13:13;19.30;99.90
21306;DHT22;10812;51.838;5.838;2022-08-01T00:15:42;19.20;99.90
21306;DHT22;10812;51.838;5.838;2022-08-01T00:18:19;19.20;99.90
21306;DHT22;10812;51.838;5.838;2022-08-01T00:20:47;19.10;99.90
21306;DHT22;10812;51.838;5.838;2022-08-01T00:23:15;19.20;99.90
21306;DHT22;10812;51.838;5.838;2022-08-01T00:25:44;19.10;99.90
21306;DHT22;10812;51.838;5.838;2022-08-01T00:28:13;19.20;99.90
21306;DHT22;10812;51.838;5.838;2022-08-01T00:30:42;19.10;99.90
21306;DHT22;10812;51.838;5.838;2022-08-01T00:33:11;19.20;99.90
21306;DHT22;10812;51.838;5.838;2022-08-01T00:35:39;19.20;99.90
21306;DHT22;10812;51.838;5.838;2022-08-01T00:38:07;19.10;99.90
21306;DHT22;10812;51.838;5.838;2022-08-01T00:40:35;19.10;99.90
21306;DHT22;10812;51.838;5.838;2022-08-01T00:43:03;19.10;99.90
21306;DHT22;10812;51.838;5.838;2022-08-01T00:45:32;19.10;99.90
21306;DHT22;10812;51.838;5.838;2022-08-01T00:48:00;19.00;99.90
21306;DHT22;10812;51.838;5.838;2022-08-01T00:50:29;19.00;99.90
21306;DHT22;10812;51.838;5.838;2022-08-01T00:52:58;19.00;99.90
21306;DHT22;10812;51.838;5.838;2022-08-01T00:55:27;19.00;99.90
21306;DHT22;10812;51.838;5.838;2022-08-01T00:57:55;19.00;99.90
21306;DHT22;10812;51.838;5.838;2022-08-01T01:00:35;19.00;99.90
21306;DHT22;10812;51.838;5.838;2022-08-01T01:03:23;19.00;99.90
21306;DHT22;10812;51.838;5.838;2022-08-01T01:06:34;19.00;99.90
21306;DHT22;10812;51.838;5.838;2022-08-01T01:09:15;19.00;99.90
21306;DHT22;10812;51.838;5.838;2022-08-01T01:11:49;19.00;99.90
21306;DHT22;10812;51.838;5.838;2022-08-01T01:14:26;19.00;99.90
21306;DHT22;10812;51.838;5.838;2022-08-01T01:16:58;19.00;99.90
21306;DHT22;10812;51.838;5.838;2022-08-01T01:19:30;18.90;99.90
21306;DHT22;10812;51.838;5.838;2022-08-01T01:22:25;19.00;99.90
21306;DHT22;10812;51.838;5.838;2022-08-01T01:25:08;19.00;99.90
21306;DHT22;10812;51.838;5.838;2022-08-01T01:27:45;18.90;99.90
21306;DHT22;10812;51.838;5.838;2022-08-01T01:30:15;18.90;99.90
21306;DHT22;10812;51.838;5.838;2022-08-01T01:32:46;19.00;99.90
21306;DHT22;10812;51.838;5.838;2022-08-01T01:35:19;19.00;99.90
21306;DHT22;10812;51.838;5.838;2022-08-01T01:37:56;18.90;99.90
21306;DHT22;10812;51.838;5.838;2022-08-01T01:40:25;18.90;99.90
21306;DHT22;10812;51.838;5.838;2022-08-01T01:42:56;18.90;99.90
21306;DHT22;10812;51.838;5.838;2022-08-01T01:45:26;18.90;99.90
21306;DHT22;10812;51.838;5.838;2022-08-01T01:47:56;18.90;99.90
21306;DHT22;10812;51.838;5.838;2022-08-01T01:50:25;18.90;99.90
21306;DHT22;10812;51.838;5.838;2022-08-01T01:52:54;18.90;99.90
21306;DHT22;10812;51.838;5.838;2022-08-01T01:55:24;18.90;99.90
21306;DHT22;10812;51.838;5.838;2022-08-01T01:57:54;18.90;99.90
21306;DHT22;10812;51.838;5.838;2022-08-01T02:00:25;18.90;99.90
21306;DHT22;10812;51.838;5.838;2022-08-01T02:02:55;18.90;99.90
21306;DHT22;10812;51.838;5.838;2022-08-01T02:05:25;18.90;99.90
21306;DHT22;10812;51.838;5.838;2022-08-01T02:07:55;18.90;99.90
21306;DHT22;10812;51.838;5.838;2022-08-01T02:10:26;18.90;99.90
21306;DHT22;10812;51.838;5.838;2022-08-01T02:12:56;18.90;99.90
21306;DHT22;10812;51.838;5.838;2022-08-01T02:15:27;18.90;99.90
21306;DHT22;10812;51.838;5.838;2022-08-01T02:17:58;18.90;99.90
21306;DHT22;10812;51.838;5.838;2022-08-01T02:20:29;18.90;99.90
21306;DHT22;10812;51.838;5.838;2022-08-01T02:23:01;18.90;99.90
21306;DHT22;10812;51.838;5.838;2022-08-01T02:25:33;18.90;99.90
21306;DHT22;10812;51.838;5.838;2022-08-01T02:28:05;18.90;99.90
21306;DHT22;10812;51.838;5.838;2022-08-01T02:30:38;18.80;99.90
21306;DHT22;10812;51.838;5.838;2022-08-01T02:33:11;18.80;99.90
21306;DHT22;10812;51.838;5.838;2022-08-01T02:35:42;18.80;99.90
21306;DHT22;10812;51.838;5.838;2022-08-01T02:38:33;18.80;99.90
21306;DHT22;10812;51.838;5.838;2022-08-01T02:41:05;18.70;99.90
21306;DHT22;10812;51.838;5.838;2022-08-01T02:43:38;18.60;99.90
21306;DHT22;10812;51.838;5.838;2022-08-01T02:46:16;18.60;99.90
21306;DHT22;10812;51.838;5.838;2022-08-01T02:48:45;18.60;99.90
21306;DHT22;10812;51.838;5.838;2022-08-01T02:51:16;18.50;99.90
21306;DHT22;10812;51.838;5.838;2022-08-01T02:53:45;18.40;99.90
21306;DHT22;10812;51.838;5.838;2022-08-01T02:56:16;18.30;99.90
21306;DHT22;10812;51.838;5.838;2022-08-01T02:58:46;18.30;99.90
21306;DHT22;10812;51.838;5.838;2022-08-01T03:06:48;18.30;99.90
21306;DHT22;10812;51.838;5.838;2022-08-01T03:09:17;18.30;99.90
21306;DHT22;10812;51.838;5.838;2022-08-01T03:11:46;18.40;99.90
21306;DHT22;10812;51.838;5.838;2022-08-01T03:14:16;18.50;99.90
21306;DHT22;10812;51.838;5.838;2022-08-01T03:16:45;18.50;99.90
21306;DHT22;10812;51.838;5.838;2022-08-01T03:19:15;18.40;99.90
21306;DHT22;10812;51.838;5.838;2022-08-01T03:21:48;18.40;99.90
21306;DHT22;10812;51.838;5.838;2022-08-01T03:24:18;18.30;99.90
21306;DHT22;10812;51.838;5.838;2022-08-01T03:26:47;18.30;99.90
21306;DHT22;10812;51.838;5.838;2022-08-01T03:29:20;18.30;99.90
21306;DHT22;10812;51.838;5.838;2022-08-01T03:31:49;18.20;99.90
21306;DHT22;10812;51.838;5.838;2022-08-01T03:34:18;18.10;99.90
21306;DHT22;10812;51.838;5.838;2022-08-01T03:36:54;18.10;99.90
21306;DHT22;10812;51.838;5.838;2022-08-01T03:39:28;18.10;99.90
21306;DHT22;10812;51.838;5.838;2022-08-01T03:42:01;18.20;99.90
21306;DHT22;10812;51.838;5.838;2022-08-01T03:44:33;18.20;99.90
21306;DHT22;10812;51.838;5.838;2022-08-01T03:47:07;18.20;99.90
21306;DHT22;10812;51.838;5.838;2022-08-01T03:49:40;18.20;99.90
21306;DHT22;10812;51.838;5.838;2022-08-01T03:52:11;18.30;99.90
21306;DHT22;10812;51.838;5.838;2022-08-01T03:54:42;18.30;99.90
21306;DHT22;10812;51.838;5.838;2022-08-01T03:57:12;18.30;99.90
21306;DHT22;10812;51.838;5.838;2022-08-01T04:00:01;18.40;99.90
21306;DHT22;10812;51.838;5.838;2022-08-01T04:02:33;18.40;99.90
21306;DHT22;10812;51.838;5.838;2022-08-01T04:05:02;18.40;99.90
21306;DHT22;10812;51.838;5.838;2022-08-01T04:07:33;18.50;99.90
21306;DHT22;10812;51.838;5.838;2022-08-01T04:10:03;18.50;99.90
21306;DHT22;10812;51.838;5.838;2022-08-01T04:12:31;18.50;99.90
21306;DHT22;10812;51.838;5.838;2022-08-01T04:15:00;18.40;99.90
21306;DHT22;10812;51.838;5.838;2022-08-01T04:17:28;18.40;99.90
21306;DHT22;10812;51.838;5.838;2022-08-01T04:19:56;18.40;99.90
21306;DHT22;10812;51.838;5.838;2022-08-01T04:22:24;18.50;99.90
21306;DHT22;10812;51.838;5.838;2022-08-01T04:24:56;18.50;99.90
21306;DHT22;10812;51.838;5.838;2022-08-01T04:27:28;18.50;99.90
21306;DHT22;10812;51.838;5.838;2022-08-01T04:30:20;18.50;99.90
21306;DHT22;10812;51.838;5.838;2022-08-01T04:32:53;18.50;99.90
21306;DHT22;10812;51.838;5.838;2022-08-01T04:35:22;18.60;99.90
21306;DHT22;10812;51.838;5.838;2022-08-01T04:38:13;18.70;99.90
21306;DHT22;10812;51.838;5.838;2022-08-01T04:40:45;18.70;99.90
21306;DHT22;10812;51.838;5.838;2022-08-01T04:43:14;18.70;99.90
21306;DHT22;10812;51.838;5.838;2022-08-01T04:45:43;18.60;99.90
21306;DHT22;10812;51.838;5.838;2022-08-01T04:48:15;18.70;99.90
21306;DHT22;10812;51.838;5.838;2022-08-01T04:50:48;18.70;99.90
21306;DHT22;10812;51.838;5.838;2022-08-01T04:53:19;18.70;99.90
21306;DHT22;10812;51.838;5.838;2022-08-01T04:55:50;18.70;99.90
21306;DHT22;10812;51.838;5.838;2022-08-01T04:58:18;18.70;99.90
21306;DHT22;10812;51.838;5.838;2022-08-01T05:00:46;18.70;99.90
21306;DHT22;10812;51.838;5.838;2022-08-01T05:03:14;18.70;99.90
21306;DHT22;10812;51.838;5.838;2022-08-01T05:05:42;18.70;99.90
21306;DHT22;10812;51.838;5.838;2022-08-01T05:08:10;18.70;99.90
21306;DHT22;10812;51.838;5.838;2022-08-01T05:10:38;18.70;99.90
21306;DHT22;10812;51.838;5.838;2022-08-01T05:13:08;18.70;99.90
21306;DHT22;10812;51.838;5.838;2022-08-01T05:15:36;18.70;99.90
21306;DHT22;10812;51.838;5.838;2022-08-01T05:18:05;18.70;99.90
21306;DHT22;10812;51.838;5.838;2022-08-01T05:20:34;18.70;99.90
21306;DHT22;10812;51.838;5.838;2022-08-01T05:23:02;18.70;99.90
21306;DHT22;10812;51.838;5.838;2022-08-01T05:25:31;18.80;99.90
21306;DHT22;10812;51.838;5.838;2022-08-01T05:28:21;18.80;99.90
21306;DHT22;10812;51.838;5.838;2022-08-01T05:30:49;18.90;99.90
21306;DHT22;10812;51.838;5.838;2022-08-01T05:33:17;18.90;99.90
21306;DHT22;10812;51.838;5.838;2022-08-01T05:35:47;18.90;99.90
21306;DHT22;10812;51.838;5.838;2022-08-01T05:38:15;19.00;99.90
21306;DHT22;10812;51.838;5.838;2022-08-01T05:40:43;19.00;99.90
21306;DHT22;10812;51.838;5.838;2022-08-01T05:43:11;19.10;99.90
21306;DHT22;10812;51.838;5.838;2022-08-01T05:45:41;19.20;99.90
21306;DHT22;10812;51.838;5.838;2022-08-01T05:48:09;19.30;99.90
21306;DHT22;10812;51.838;5.838;2022-08-01T05:50:37;19.30;99.90
21306;DHT22;10812;51.838;5.838;2022-08-01T05:53:05;19.40;99.90
21306;DHT22;10812;51.838;5.838;2022-08-01T05:55:34;19.40;99.90
21306;DHT22;10812;51.838;5.838;2022-08-01T05:58:02;19.30;99.90
21306;DHT22;10812;51.838;5.838;2022-08-01T06:00:30;19.30;99.90
21306;DHT22;10812;51.838;5.838;2022-08-01T06:03:00;19.40;99.90
21306;DHT22;10812;51.838;5.838;2022-08-01T06:05:28;19.50;99.90
21306;DHT22;10812;51.838;5.838;2022-08-01T06:07:56;19.60;99.90
21306;DHT22;10812;51.838;5.838;2022-08-01T06:10:24;19.70;99.90
21306;DHT22;10812;51.838;5.838;2022-08-01T06:12:53;19.80;99.90
21306;DHT22;10812;51.838;5.838;2022-08-01T06:15:21;19.90;99.90
21306;DHT22;10812;51.838;5.838;2022-08-01T06:17:49;20.10;99.90
21306;DHT22;10812;51.838;5.838;2022-08-01T06:20:18;20.40;99.90
21306;DHT22;10812;51.838;5.838;2022-08-01T06:22:46;20.70;99.90
21306;DHT22;10812;51.838;5.838;2022-08-01T06:25:18;21.40;99.90
21306;DHT22;10812;51.838;5.838;2022-08-01T06:27:47;21.60;99.90
21306;DHT22;10812;51.838;5.838;2022-08-01T06:30:16;21.60;99.90
21306;DHT22;10812;51.838;5.838;2022-08-01T06:32:44;21.50;99.90
21306;DHT22;10812;51.838;5.838;2022-08-01T06:35:12;21.40;99.90
21306;DHT22;10812;51.838;5.838;2022-08-01T06:37:42;21.20;99.90
21306;DHT22;10812;51.838;5.838;2022-08-01T06:40:12;21.10;99.90
21306;DHT22;10812;51.838;5.838;2022-08-01T06:42:43;21.00;99.90
21306;DHT22;10812;51.838;5.838;2022-08-01T06:45:13;21.10;99.90
21306;DHT22;10812;51.838;5.838;2022-08-01T06:47:43;21.50;99.90
21306;DHT22;10812;51.838;5.838;2022-08-01T06:50:16;21.70;99.90
21306;DHT22;10812;51.838;5.838;2022-08-01T06:52:46;21.60;99.90
21306;DHT22;10812;51.838;5.838;2022-08-01T06:55:15;21.20;99.90
21306;DHT22;10812;51.838;5.838;2022-08-01T06:57:47;21.10;99.90
21306;DHT22;10812;51.838;5.838;2022-08-01T07:00:17;20.90;99.90
21306;DHT22;10812;51.838;5.838;2022-08-01T07:02:49;20.60;99.90
21306;DHT22;10812;51.838;5.838;2022-08-01T07:05:17;20.40;99.90
21306;DHT22;10812;51.838;5.838;2022-08-01T07:07:48;20.10;99.90
21306;DHT22;10812;51.838;5.838;2022-08-01T07:10:16;19.90;99.90
21306;DHT22;10812;51.838;5.838;2022-08-01T07:12:44;19.90;99.90
21306;DHT22;10812;51.838;5.838;2022-08-01T07:15:12;20.00;99.90
21306;DHT22;10812;51.838;5.838;2022-08-01T07:17:42;20.00;99.90
21306;DHT22;10812;51.838;5.838;2022-08-01T07:20:12;20.00;99.90
21306;DHT22;10812;51.838;5.838;2022-08-01T07:22:42;20.20;99.90
21306;DHT22;10812;51.838;5.838;2022-08-01T07:25:14;20.30;99.90
21306;DHT22;10812;51.838;5.838;2022-08-01T07:27:43;20.50;99.90
21306;DHT22;10812;51.838;5.838;2022-08-01T07:33:52;20.50;99.90
21306;DHT22;10812;51.838;5.838;2022-08-01T07:36:20;20.60;99.90
21306;DHT22;10812;51.838;5.838;2022-08-01T07:38:48;20.60;99.90
21306;DHT22;10812;51.838;5.838;2022-08-01T07:41:18;20.70;99.90
21306;DHT22;10812;51.838;5.838;2022-08-01T07:44:06;20.90;99.90
21306;DHT22;10812;51.838;5.838;2022-08-01T07:46:34;20.70;99.90
21306;DHT22;10812;51.838;5.838;2022-08-01T07:49:02;20.80;99.90
21306;DHT22;10812;51.838;5.838;2022-08-01T07:51:30;21.00;99.90
21306;DHT22;10812;51.838;5.838;2022-08-01T07:53:58;21.40;99.90
21306;DHT22;10812;51.838;5.838;2022-08-01T07:56:28;21.80;99.90
21306;DHT22;10812;51.838;5.838;2022-08-01T07:58:56;22.10;99.90
21306;DHT22;10812;51.838;5.838;2022-08-01T08:01:24;22.70;99.90
21306;DHT22;10812;51.838;5.838;2022-08-01T08:03:53;22.90;99.90
21306;DHT22;10812;51.838;5.838;2022-08-01T08:06:21;23.20;99.90
21306;DHT22;10812;51.838;5.838;2022-08-01T08:08:49;23.30;99.90
21306;DHT22;10812;51.838;5.838;2022-08-01T08:19:10;22.70;99.90
21306;DHT22;10812;51.838;5.838;2022-08-01T08:21:39;22.30;99.90
21306;DHT22;10812;51.838;5.838;2022-08-01T08:24:08;22.10;99.90
21306;DHT22;10812;51.838;5.838;2022-08-01T08:26:55;21.80;99.90
21306;DHT22;10812;51.838;5.838;2022-08-01T08:29:24;21.50;99.90
21306;DHT22;10812;51.838;5.838;2022-08-01T08:31:53;21.50;99.90
21306;DHT22;10812;51.838;5.838;2022-08-01T08:34:24;21.50;99.90
21306;DHT22;10812;51.838;5.838;2022-08-01T08:36:53;21.80;99.90
21306;DHT22;10812;51.838;5.838;2022-08-01T08:39:25;21.70;99.90
21306;DHT22;10812;51.838;5.838;2022-08-01T08:41:53;21.80;99.90
21306;DHT22;10812;51.838;5.838;2022-08-01T08:44:21;21.70;99.90
21306;DHT22;10812;51.838;5.838;2022-08-01T08:46:51;21.60;99.90
21306;DHT22;10812;51.838;5.838;2022-08-01T08:49:21;21.50;99.90
21306;DHT22;10812;51.838;5.838;2022-08-01T08:51:52;21.40;99.90
21306;DHT22;10812;51.838;5.838;2022-08-01T08:54:22;21.50;99.90
21306;DHT22;10812;51.838;5.838;2022-08-01T08:56:58;21.70;99.90
21306;DHT22;10812;51.838;5.838;2022-08-01T08:59:26;21.50;99.90
21306;DHT22;10812;51.838;5.838;2022-08-01T09:01:55;21.90;99.90
21306;DHT22;10812;51.838;5.838;2022-08-01T09:04:24;21.80;99.90
21306;DHT22;10812;51.838;5.838;2022-08-01T09:06:54;22.20;99.90
21306;DHT22;10812;51.838;5.838;2022-08-01T09:09:22;22.70;99.90
21306;DHT22;10812;51.838;5.838;2022-08-01T09:11:51;23.20;99.90
21306;DHT22;10812;51.838;5.838;2022-08-01T09:14:24;23.40;99.90
21306;DHT22;10812;51.838;5.838;2022-08-01T09:17:01;23.60;99.90
21306;DHT22;10812;51.838;5.838;2022-08-01T09:19:37;23.10;99.90
21306;DHT22;10812;51.838;5.838;2022-08-01T09:22:10;23.00;99.90
21306;DHT22;10812;51.838;5.838;2022-08-01T09:24:39;23.30;99.90
21306;DHT22;10812;51.838;5.838;2022-08-01T09:27:19;23.30;99.90
21306;DHT22;10812;51.838;5.838;2022-08-01T09:29:49;23.60;99.90
21306;DHT22;10812;51.838;5.838;2022-08-01T09:32:28;23.50;99.90
21306;DHT22;10812;51.838;5.838;2022-08-01T09:35:24;23.10;99.90
21306;DHT22;10812;51.838;5.838;2022-08-01T09:38:16;23.10;99.90
21306;DHT22;10812;51.838;5.838;2022-08-01T09:40:49;23.40;99.90
21306;DHT22;10812;51.838;5.838;2022-08-01T09:43:18;23.50;99.90
21306;DHT22;10812;51.838;5.838;2022-08-01T09:45:47;23.70;99.90
21306;DHT22;10812;51.838;5.838;2022-08-01T09:48:19;23.90;99.90
21306;DHT22;10812;51.838;5.838;2022-08-01T09:50:53;23.60;99.90
21306;DHT22;10812;51.838;5.838;2022-08-01T09:53:42;23.20;99.90
21306;DHT22;10812;51.838;5.838;2022-08-01T09:56:18;22.80;99.90
21306;DHT22;10812;51.838;5.838;2022-08-01T09:58:54;21.90;99.90
21306;DHT22;10812;51.838;5.838;2022-08-01T10:01:27;21.50;99.90
21306;DHT22;10812;51.838;5.838;2022-08-01T10:04:09;21.10;99.90
21306;DHT22;10812;51.838;5.838;2022-08-01T10:06:39;20.90;99.90
21306;DHT22;10812;51.838;5.838;2022-08-01T10:09:10;20.80;99.90
21306;DHT22;10812;51.838;5.838;2022-08-01T10:11:41;20.50;99.90
21306;DHT22;10812;51.838;5.838;2022-08-01T10:14:11;20.60;99.90
21306;DHT22;10812;51.838;5.838;2022-08-01T10:16:45;20.60;99.90
21306;DHT22;10812;51.838;5.838;2022-08-01T10:19:23;20.70;99.90
21306;DHT22;10812;51.838;5.838;2022-08-01T10:21:56;20.60;99.90
21306;DHT22;10812;51.838;5.838;2022-08-01T10:24:29;20.60;99.90
21306;DHT22;10812;51.838;5.838;2022-08-01T10:27:02;20.40;99.90
21306;DHT22;10812;51.838;5.838;2022-08-01T10:29:40;20.30;99.90
21306;DHT22;10812;51.838;5.838;2022-08-01T10:32:25;20.30;99.90
21306;DHT22;10812;51.838;5.838;2022-08-01T10:34:55;20.30;99.90
21306;DHT22;10812;51.838;5.838;2022-08-01T10:37:24;20.10;99.90
21306;DHT22;10812;51.838;5.838;2022-08-01T10:39:55;19.90;99.90
21306;DHT22;10812;51.838;5.838;2022-08-01T10:42:44;20.00;99.90
21306;DHT22;10812;51.838;5.838;2022-08-01T10:45:15;20.10;99.90
21306;DHT22;10812;51.838;5.838;2022-08-01T10:47:49;20.00;99.90
21306;DHT22;10812;51.838;5.838;2022-08-01T10:50:25;19.90;99.90
21306;DHT22;10812;51.838;5.838;2022-08-01T10:53:09;20.00;99.90
21306;DHT22;10812;51.838;5.838;2022-08-01T10:55:57;19.90;99.90
21306;DHT22;10812;51.838;5.838;2022-08-01T10:58:30;19.90;99.90
21306;DHT22;10812;51.838;5.838;2022-08-01T11:01:23;19.90;99.90
21306;DHT22;10812;51.838;5.838;2022-08-01T11:04:02;20.10;99.90
21306;DHT22;10812;51.838;5.838;2022-08-01T11:06:52;20.00;99.90
21306;DHT22;10812;51.838;5.838;2022-08-01T11:09:30;20.10;99.90
21306;DHT22;10812;51.838;5.838;2022-08-01T11:12:07;20.10;99.90
21306;DHT22;10812;51.838;5.838;2022-08-01T11:15:23;20.20;99.90
21306;DHT22;10812;51.838;5.838;2022-08-01T11:18:02;20.40;99.90
21306;DHT22;10812;51.838;5.838;2022-08-01T11:20:32;20.80;99.90
21306;DHT22;10812;51.838;5.838;2022-08-01T11:23:28;20.80;99.90
21306;DHT22;10812;51.838;5.838;2022-08-01T11:26:20;21.10;99.90
21306;DHT22;10812;51.838;5.838;2022-08-01T11:29:14;21.40;99.90
21306;DHT22;10812;51.838;5.838;2022-08-01T11:31:47;21.60;99.90
21306;DHT22;10812;51.838;5.838;2022-08-01T11:34:15;21.60;99.90
21306;DHT22;10812;51.838;5.838;2022-08-01T11:36:44;21.80;99.90
21306;DHT22;10812;51.838;5.838;2022-08-01T11:39:29;22.10;99.90
21306;DHT22;10812;51.838;5.838;2022-08-01T11:42:18;22.10;99.90
21306;DHT22;10812;51.838;5.838;2022-08-01T11:44:51;22.20;99.90
21306;DHT22;10812;51.838;5.838;2022-08-01T11:47:43;22.30;99.90
21306;DHT22;10812;51.838;5.838;2022-08-01T11:50:29;22.50;99.90
21306;DHT22;10812;51.838;5.838;2022-08-01T11:52:58;22.70;99.90
21306;DHT22;10812;51.838;5.838;2022-08-01T11:55:27;22.90;99.90
21306;DHT22;10812;51.838;5.838;2022-08-01T11:58:01;22.70;99.90
21306;DHT22;10812;51.838;5.838;2022-08-01T12:00:31;22.60;99.90
21306;DHT22;10812;51.838;5.838;2022-08-01T12:03:02;22.50;99.90
21306;DHT22;10812;51.838;5.838;2022-08-01T12:05:32;22.40;99.90
21306;DHT22;10812;51.838;5.838;2022-08-01T12:08:01;22.60;99.90
21306;DHT22;10812;51.838;5.838;2022-08-01T12:10:33;22.50;99.90
21306;DHT22;10812;51.838;5.838;2022-08-01T12:13:15;22.40;99.90
21306;DHT22;10812;51.838;5.838;2022-08-01T12:15:46;22.40;99.90
21306;DHT22;10812;51.838;5.838;2022-08-01T12:18:19;22.40;99.90
21306;DHT22;10812;51.838;5.838;2022-08-01T12:20:47;22.40;99.90
21306;DHT22;10812;51.838;5.838;2022-08-01T12:27:04;22.10;99.90
21306;DHT22;10812;51.838;5.838;2022-08-01T12:29:34;22.10;99.90
21306;DHT22;10812;51.838;5.838;2022-08-01T12:32:04;22.20;99.90
21306;DHT22;10812;51.838;5.838;2022-08-01T12:35:03;22.30;99.90
21306;DHT22;10812;51.838;5.838;2022-08-01T12:37:34;22.50;99.90
21306;DHT22;10812;51.838;5.838;2022-08-01T12:40:09;22.60;99.90
21306;DHT22;10812;51.838;5.838;2022-08-01T12:42:37;22.80;99.90
21306;DHT22;10812;51.838;5.838;2022-08-01T12:45:08;22.60;99.90
21306;DHT22;10812;51.838;5.838;2022-08-01T12:47:39;22.60;99.90
21306;DHT22;10812;51.838;5.838;2022-08-01T12:50:11;22.40;99.90
21306;DHT22;10812;51.838;5.838;2022-08-01T12:52:39;22.40;99.90
21306;DHT22;10812;51.838;5.838;2022-08-01T12:55:10;22.10;99.90
21306;DHT22;10812;51.838;5.838;2022-08-01T12:57:40;21.90;99.90
21306;DHT22;10812;51.838;5.838;2022-08-01T13:00:15;22.30;99.90
21306;DHT22;10812;51.838;5.838;2022-08-01T13:02:46;22.50;99.90
21306;DHT22;10812;51.838;5.838;2022-08-01T13:05:15;22.50;99.90
21306;DHT22;10812;51.838;5.838;2022-08-01T13:07:46;22.70;99.90
21306;DHT22;10812;51.838;5.838;2022-08-01T13:10:23;23.00;99.90
21306;DHT22;10812;51.838;5.838;2022-08-01T13:12:53;23.80;99.90
21306;DHT22;10812;51.838;5.838;2022-08-01T13:15:25;23.80;99.90
21306;DHT22;10812;51.838;5.838;2022-08-01T13:17:55;23.90;99.90
21306;DHT22;10812;51.838;5.838;2022-08-01T13:20:29;23.80;99.90
21306;DHT22;10812;51.838;5.838;2022-08-01T13:23:14;23.70;99.90
21306;DHT22;10812;51.838;5.838;2022-08-01T13:26:03;23.50;99.90
21306;DHT22;10812;51.838;5.838;2022-08-01T13:28:32;23.40;99.90
21306;DHT22;10812;51.838;5.838;2022-08-01T13:31:02;23.20;99.90
21306;DHT22;10812;51.838;5.838;2022-08-01T13:33:42;23.10;99.90
21306;DHT22;10812;51.838;5.838;2022-08-01T13:36:17;23.10;99.90
21306;DHT22;10812;51.838;5.838;2022-08-01T13:38:54;23.40;99.90
21306;DHT22;10812;51.838;5.838;2022-08-01T13:41:40;23.40;99.90
21306;DHT22;10812;51.838;5.838;2022-08-01T13:44:08;23.40;99.90
21306;DHT22;10812;51.838;5.838;2022-08-01T13:46:38;23.40;99.90
21306;DHT22;10812;51.838;5.838;2022-08-01T13:49:17;23.30;99.90
21306;DHT22;10812;51.838;5.838;2022-08-01T13:51:46;23.20;99.90
21306;DHT22;10812;51.838;5.838;2022-08-01T13:54:16;23.20;99.90
21306;DHT22;10812;51.838;5.838;2022-08-01T13:56:44;23.50;99.90
21306;DHT22;10812;51.838;5.838;2022-08-01T13:59:12;23.50;99.90
21306;DHT22;10812;51.838;5.838;2022-08-01T14:01:41;23.70;99.90
21306;DHT22;10812;51.838;5.838;2022-08-01T14:04:09;24.00;99.90
21306;DHT22;10812;51.838;5.838;2022-08-01T14:06:39;24.10;99.90
21306;DHT22;10812;51.838;5.838;2022-08-01T14:09:07;23.90;99.90
21306;DHT22;10812;51.838;5.838;2022-08-01T14:11:43;23.80;99.90
21306;DHT22;10812;51.838;5.838;2022-08-01T14:14:12;23.80;99.90
21306;DHT22;10812;51.838;5.838;2022-08-01T14:16:42;23.30;99.90
21306;DHT22;10812;51.838;5.838;2022-08-01T14:19:11;23.10;99.90
21306;DHT22;10812;51.838;5.838;2022-08-01T14:21:41;23.00;99.90
21306;DHT22;10812;51.838;5.838;2022-08-01T14:24:09;22.80;99.90
21306;DHT22;10812;51.838;5.838;2022-08-01T14:26:37;22.80;99.90
21306;DHT22;10812;51.838;5.838;2022-08-01T14:29:05;23.00;99.90
21306;DHT22;10812;51.838;5.838;2022-08-01T14:31:33;23.10;99.90
21306;DHT22;10812;51.838;5.838;2022-08-01T14:34:02;23.10;99.90
21306;DHT22;10812;51.838;5.838;2022-08-01T14:36:30;23.10;99.90
21306;DHT22;10812;51.838;5.838;2022-08-01T14:39:06;23.20;99.90
21306;DHT22;10812;51.838;5.838;2022-08-01T14:41:40;23.20;99.90
21306;DHT22;10812;51.838;5.838;2022-08-01T14:44:11;23.10;99.90
21306;DHT22;10812;51.838;5.838;2022-08-01T14:46:39;23.30;99.90
21306;DHT22;10812;51.838;5.838;2022-08-01T14:49:23;23.40;99.90
21306;DHT22;10812;51.838;5.838;2022-08-01T14:51:52;23.40;99.90
21306;DHT22;10812;51.838;5.838;2022-08-01T14:54:21;23.40;99.90
21306;DHT22;10812;51.838;5.838;2022-08-01T14:56:55;23.60;99.90
21306;DHT22;10812;51.838;5.838;2022-08-01T14:59:23;23.80;99.90
21306;DHT22;10812;51.838;5.838;2022-08-01T15:01:51;23.80;99.90
21306;DHT22;10812;51.838;5.838;2022-08-01T15:04:20;23.70;99.90
21306;DHT22;10812;51.838;5.838;2022-08-01T15:06:48;23.70;99.90
21306;DHT22;10812;51.838;5.838;2022-08-01T15:09:16;23.60;99.90
21306;DHT22;10812;51.838;5.838;2022-08-01T15:11:45;23.40;99.90
21306;DHT22;10812;51.838;5.838;2022-08-01T15:14:14;23.40;99.90
21306;DHT22;10812;51.838;5.838;2022-08-01T15:16:59;23.50;99.90
21306;DHT22;10812;51.838;5.838;2022-08-01T15:19:28;23.60;99.90
21306;DHT22;10812;51.838;5.838;2022-08-01T15:21:56;23.60;99.90
21306;DHT22;10812;51.838;5.838;2022-08-01T15:24:27;23.30;99.90
21306;DHT22;10812;51.838;5.838;2022-08-01T15:26:56;23.40;99.90
21306;DHT22;10812;51.838;5.838;2022-08-01T15:29:25;23.50;99.90
21306;DHT22;10812;51.838;5.838;2022-08-01T15:31:53;23.50;99.90
21306;DHT22;10812;51.838;5.838;2022-08-01T15:34:22;23.30;99.10
21306;DHT22;10812;51.838;5.838;2022-08-01T15:36:50;23.10;99.90
21306;DHT22;10812;51.838;5.838;2022-08-01T15:39:18;23.10;99.80
21306;DHT22;10812;51.838;5.838;2022-08-01T15:41:46;23.30;99.90
21306;DHT22;10812;51.838;5.838;2022-08-01T15:44:16;23.50;99.50
21306;DHT22;10812;51.838;5.838;2022-08-01T15:46:46;23.60;99.00
21306;DHT22;10812;51.838;5.838;2022-08-01T15:49:15;23.50;98.00
21306;DHT22;10812;51.838;5.838;2022-08-01T15:51:43;23.40;98.00
21306;DHT22;10812;51.838;5.838;2022-08-01T15:54:12;23.30;97.80
21306;DHT22;10812;51.838;5.838;2022-08-01T15:56:41;23.30;98.00
21306;DHT22;10812;51.838;5.838;2022-08-01T15:59:09;23.50;98.00
21306;DHT22;10812;51.838;5.838;2022-08-01T16:01:39;23.40;97.80
21306;DHT22;10812;51.838;5.838;2022-08-01T16:04:07;23.60;98.10
21306;DHT22;10812;51.838;5.838;2022-08-01T16:06:36;23.70;97.70
21306;DHT22;10812;51.838;5.838;2022-08-01T16:09:05;23.80;97.40
21306;DHT22;10812;51.838;5.838;2022-08-01T16:11:33;23.80;97.00
21306;DHT22;10812;51.838;5.838;2022-08-01T16:14:08;23.80;96.90
21306;DHT22;10812;51.838;5.838;2022-08-01T16:16:36;23.70;96.00
21306;DHT22;10812;51.838;5.838;2022-08-01T16:19:05;23.60;96.00
21306;DHT22;10812;51.838;5.838;2022-08-01T16:21:33;23.60;95.90